Time;durP1;ratioP1;P1;durP2;ratioP2;P2;SDS_P1;SDS_P2;PMS_P1;PMS_P2;Temp;Humidity;BMP_temperature;BMP_pressure;BME280_temperature;BME280_humidity;BME280_pressure;Samples;Min_cycle;Max_cycle;Signal;HPM_P1;HPM_P2
2022/01/16 00:00:40;;;;;;;;;75.50;53.00;;;;;1.01;83.59;101749.59;5058654;28;46091;-62
2022/01/16 00:06:07;;;;;;;;;65.50;47.50;;;;;1.09;83.24;101754.91;5049741;28;45319;-61
2022/01/16 00:08:32;;;;;;;;;63.50;48.75;;;;;1.11;83.17;101729.91;5062267;28;45362;-62
2022/01/16 00:10:59;;;;;;;;;69.50;50.25;;;;;1.10;82.84;101716.94;5059956;28;45226;-61
2022/01/16 00:13:25;;;;;;;;;65.25;48.50;;;;;1.16;82.26;101717.03;5058859;28;45340;-61
2022/01/16 00:15:50;;;;;;;;;65.25;49.00;;;;;1.07;82.93;101722.06;5059032;28;45468;-62
2022/01/16 00:18:22;;;;;;;;;68.75;52.25;;;;;1.12;82.70;101734.25;5057796;28;45252;-61
2022/01/16 00:20:48;;;;;;;;;51.25;40.25;;;;;1.17;81.86;101729.16;5059579;28;45473;-62
2022/01/16 00:23:22;;;;;;;;;77.00;53.50;;;;;1.21;82.34;101728.34;5065131;28;45921;-61
2022/01/16 00:25:47;;;;;;;;;60.25;45.75;;;;;1.19;82.21;101735.22;5059501;28;45399;-61
2022/01/16 00:28:12;;;;;;;;;64.00;49.25;;;;;1.16;82.57;101743.81;5058436;28;45300;-61
2022/01/16 00:30:38;;;;;;;;;63.25;46.50;;;;;1.15;82.09;101757.63;5058148;28;46085;-62
2022/01/16 00:33:03;;;;;;;;;63.25;50.50;;;;;1.14;83.05;101778.34;5058645;28;45197;-61
2022/01/16 00:35:29;;;;;;;;;67.00;50.75;;;;;1.09;82.65;101782.56;5059395;28;45208;-62
2022/01/16 00:37:54;;;;;;;;;63.75;48.50;;;;;1.03;82.35;101770.34;5059397;28;45380;-62
2022/01/16 00:40:19;;;;;;;;;59.00;46.75;;;;;1.06;82.22;101759.16;5040899;28;45940;-61
2022/01/16 00:42:45;;;;;;;;;69.50;52.50;;;;;1.05;81.84;101722.03;5059705;28;45281;-63
2022/01/16 00:45:10;;;;;;;;;66.00;46.75;;;;;1.05;82.09;101741.84;5059712;28;45193;-62
2022/01/16 00:47:36;;;;;;;;;64.75;49.00;;;;;1.03;82.28;101744.44;5060431;28;45384;-61
2022/01/16 00:50:03;;;;;;;;;67.00;50.25;;;;;1.05;81.80;101747.03;5060320;28;45643;-61
2022/01/16 00:52:28;;;;;;;;;69.75;51.75;;;;;1.06;81.83;101759.16;5058981;28;45346;-62
2022/01/16 00:54:55;;;;;;;;;62.75;47.75;;;;;0.98;81.73;101757.28;5057696;28;45816;-65
2022/01/16 00:57:20;;;;;;;;;60.50;47.25;;;;;0.94;81.64;101767.59;5058367;28;45925;-62
2022/01/16 00:59:46;;;;;;;;;59.25;45.25;;;;;0.84;81.77;101749.28;5057774;28;45939;-61
2022/01/16 01:02:11;;;;;;;;;62.00;47.50;;;;;0.76;81.47;101812.13;5057060;28;45410;-61
2022/01/16 01:04:37;;;;;;;;;66.00;47.25;;;;;0.75;81.97;101810.38;5057716;28;45349;-60
2022/01/16 01:07:03;;;;;;;;;51.75;41.50;;;;;0.73;81.54;101816.41;5058577;28;45425;-62
2022/01/16 01:09:28;;;;;;;;;64.75;48.00;;;;;0.72;81.75;101808.63;5059537;28;46533;-63
2022/01/16 01:11:53;;;;;;;;;63.50;44.50;;;;;0.66;81.39;101822.31;5059724;28;45379;-62
2022/01/16 01:14:37;;;;;;;;;66.00;49.50;;;;;0.59;81.57;101833.38;5061302;28;45432;-63
2022/01/16 01:17:04;;;;;;;;;55.75;44.75;;;;;0.57;82.26;101788.44;5059121;28;45380;-62
2022/01/16 01:19:33;;;;;;;;;67.00;47.00;;;;;0.61;82.56;101820.47;5059180;28;47150;-61
2022/01/16 01:21:59;;;;;;;;;60.25;46.00;;;;;0.60;82.44;101779.88;5060466;28;45450;-62
2022/01/16 01:24:25;;;;;;;;;63.00;45.50;;;;;0.59;82.37;101719.44;5064331;28;45332;-62
2022/01/16 01:26:58;;;;;;;;;67.25;48.25;;;;;0.63;82.14;101720.38;5060661;28;45445;-63
2022/01/16 01:29:28;;;;;;;;;66.25;52.25;;;;;0.65;82.55;101721.28;5066390;28;47239;-62
2022/01/16 01:31:53;;;;;;;;;67.50;49.50;;;;;0.68;82.50;101692.88;5060809;28;45383;-63
2022/01/16 01:34:19;;;;;;;;;74.00;52.75;;;;;0.65;82.42;101697.97;5062399;28;45281;-62
2022/01/16 01:36:48;;;;;;;;;59.75;46.75;;;;;0.68;82.33;101726.53;5064228;28;45156;-61
2022/01/16 01:39:17;;;;;;;;;67.00;48.50;;;;;0.71;82.69;101757.66;5061824;28;46868;-62
2022/01/16 01:41:43;;;;;;;;;65.25;46.50;;;;;0.72;82.23;101768.03;5060746;28;45787;-62
2022/01/16 01:52:20;;;;;;;;;61.25;45.50;;;;;0.84;82.11;101798.50;5060391;28;45350;-61
2022/01/16 01:54:46;;;;;;;;;65.25;46.50;;;;;0.91;82.77;101824.53;5041683;28;45340;-61
2022/01/16 01:57:12;;;;;;;;;49.75;42.75;;;;;0.97;82.60;101801.34;5056898;28;45469;-64
2022/01/16 01:59:39;;;;;;;;;73.25;52.50;;;;;0.98;82.43;101803.06;5057887;28;45840;-62
2022/01/16 02:02:06;;;;;;;;;63.75;48.50;;;;;1.06;82.35;101829.13;5057863;28;45384;-62
2022/01/16 02:04:31;;;;;;;;;69.75;50.75;;;;;1.09;82.07;101843.03;5057044;28;45324;-61
2022/01/16 02:06:57;;;;;;;;;64.50;48.50;;;;;1.09;82.31;101839.56;5056821;28;45528;-63
2022/01/16 02:09:23;;;;;;;;;60.75;47.75;;;;;1.12;82.49;101850.00;5057094;28;45423;-60
2022/01/16 02:11:51;;;;;;;;;67.00;47.75;;;;;1.12;82.70;101861.22;5056175;28;45459;-61
2022/01/16 02:14:33;;;;;;;;;66.75;49.00;;;;;1.12;82.79;101861.22;5056747;28;45352;-61
2022/01/16 02:28:19;;;;;;;;;70.00;52.00;;;;;1.28;82.67;101875.38;5059166;28;45233;-61
2022/01/16 02:31:14;;;;;;;;;70.50;51.75;;;;;1.29;82.73;101869.34;5058391;28;46306;-62
2022/01/16 02:36:31;;;;;;;;;73.00;52.25;;;;;1.35;82.69;101840.03;5057308;28;45427;-60
2022/01/16 02:38:59;;;;;;;;;62.50;45.25;;;;;1.38;82.34;101850.47;5056784;28;45231;-61
2022/01/16 02:41:25;;;;;;;;;66.50;47.00;;;;;1.42;82.16;101847.09;5061331;28;46231;-62
2022/01/16 02:43:51;;;;;;;;;75.00;52.75;;;;;1.44;82.45;101840.22;5036302;28;45403;-61
2022/01/16 02:48:49;;;;;;;;;66.75;47.00;;;;;1.45;82.13;101823.81;5056250;28;45276;-61
2022/01/16 02:51:19;;;;;;;;;73.75;51.75;;;;;1.45;82.25;101828.13;5018207;28;47411;-61
2022/01/16 02:53:46;;;;;;;;;69.00;51.50;;;;;1.37;82.53;101812.44;5056767;28;45310;-61
2022/01/16 02:56:13;;;;;;;;;63.75;49.00;;;;;1.40;82.37;101819.41;5059777;28;45376;-61
2022/01/16 02:58:39;;;;;;;;;68.25;48.25;;;;;1.35;82.56;101808.09;5059238;28;45308;-60
2022/01/16 03:01:04;;;;;;;;;66.75;53.00;;;;;1.45;82.99;101812.59;5021266;28;48180;-61
2022/01/16 03:03:30;;;;;;;;;69.50;53.00;;;;;1.44;82.71;101798.72;5055517;28;45507;-61
2022/01/16 03:05:55;;;;;;;;;70.50;48.75;;;;;1.45;82.38;101807.38;5059386;28;45325;-61
2022/01/16 03:08:21;;;;;;;;;74.00;53.00;;;;;1.42;82.98;101792.63;5059271;28;45410;-61
2022/01/16 03:13:11;;;;;;;;;72.00;51.25;;;;;1.58;82.63;101793.78;5060220;28;45331;-61
2022/01/16 03:15:38;;;;;;;;;63.75;46.75;;;;;1.63;82.60;101790.41;5060206;28;45351;-62
2022/01/16 03:23:18;;;;;;;;;69.25;50.25;;;;;1.65;82.51;101791.28;5058349;28;45356;-61
2022/01/16 03:25:44;;;;;;;;;69.25;52.00;;;;;1.64;83.21;101781.75;5058924;28;45470;-61
2022/01/16 03:28:09;;;;;;;;;70.25;50.00;;;;;1.70;82.92;101797.44;5061615;28;45485;-61
2022/01/16 03:30:35;;;;;;;;;74.00;53.25;;;;;1.73;82.42;101792.28;5058748;28;45474;-61
2022/01/16 03:33:00;;;;;;;;;70.50;51.50;;;;;1.73;82.16;101795.78;5059016;28;45357;-63
2022/01/16 03:35:26;;;;;;;;;62.50;48.75;;;;;1.73;82.69;101800.06;5061271;28;45371;-62
2022/01/16 03:37:51;;;;;;;;;69.25;48.50;;;;;1.78;82.23;101801.00;5060926;28;45461;-61
2022/01/16 03:40:20;;;;;;;;;69.25;51.25;;;;;1.79;82.45;101797.56;5060644;28;45442;-61
2022/01/16 03:42:45;;;;;;;;;64.25;48.25;;;;;1.82;82.52;101808.00;5059362;28;45455;-64
2022/01/16 03:45:11;;;;;;;;;69.75;51.25;;;;;1.86;82.04;101820.16;5060663;28;45155;-61
2022/01/16 03:47:37;;;;;;;;;61.25;48.00;;;;;1.86;81.10;101816.72;5060331;28;45286;-62
2022/01/16 03:50:04;;;;;;;;;66.00;49.25;;;;;1.89;82.04;101816.75;5058581;28;45582;-61
2022/01/16 03:52:29;;;;;;;;;64.25;46.75;;;;;1.92;81.68;101800.34;5058384;28;45537;-63
2022/01/16 03:54:55;;;;;;;;;63.25;48.25;;;;;1.93;81.45;101799.50;5058915;28;45311;-60
2022/01/16 03:57:20;;;;;;;;;70.75;48.25;;;;;1.90;81.21;101798.59;5059133;28;45327;-62
2022/01/16 03:59:46;;;;;;;;;65.50;49.50;;;;;1.83;81.08;101783.78;5059259;28;46236;-62
2022/01/16 04:02:11;;;;;;;;;65.75;48.25;;;;;1.87;81.36;101803.75;5058781;28;45351;-62
2022/01/16 04:04:36;;;;;;;;;59.25;46.75;;;;;1.83;81.12;101798.50;5059385;28;45339;-62
2022/01/16 04:07:02;;;;;;;;;64.25;48.50;;;;;1.81;81.11;101811.44;5059829;28;45502;-62
2022/01/16 04:09:28;;;;;;;;;58.00;45.25;;;;;1.78;80.84;101803.59;5061808;28;45353;-62
2022/01/16 04:11:56;;;;;;;;;64.25;48.50;;;;;1.77;80.81;101803.59;5060061;28;45268;-61
2022/01/16 04:17:15;;;;;;;;;73.50;51.00;;;;;1.70;80.96;101815.59;5019332;28;45359;-62
2022/01/16 04:19:41;;;;;;;;;59.50;42.00;;;;;1.73;81.07;101834.69;5058564;28;47025;-61
2022/01/16 04:22:06;;;;;;;;;67.00;48.00;;;;;1.67;81.57;101823.31;5057289;28;45384;-61
2022/01/16 04:24:33;;;;;;;;;69.75;54.25;;;;;1.65;81.22;101843.16;5056879;28;45271;-62
2022/01/16 04:26:58;;;;;;;;;64.50;50.75;;;;;1.63;81.64;101852.66;5058810;28;45455;-62
2022/01/16 04:29:24;;;;;;;;;64.75;51.00;;;;;1.65;81.88;101861.31;5058219;28;45425;-61
2022/01/16 04:31:49;;;;;;;;;66.75;48.25;;;;;1.67;81.63;101838.88;5057294;28;45531;-61
2022/01/16 04:34:14;;;;;;;;;61.50;45.00;;;;;1.72;82.07;101845.03;5057909;28;45470;-61
2022/01/16 04:36:40;;;;;;;;;70.00;50.50;;;;;1.72;81.92;101861.47;5058192;28;45434;-60
2022/01/16 04:39:12;;;;;;;;;67.50;52.00;;;;;1.78;81.95;101878.00;5059272;28;45330;-62
2022/01/16 04:44:21;;;;;;;;;69.75;52.00;;;;;1.74;81.61;101877.03;5057613;28;45291;-62
2022/01/16 04:46:47;;;;;;;;;66.50;45.75;;;;;1.72;81.70;101868.38;5057726;28;45543;-62
2022/01/16 04:49:12;;;;;;;;;67.25;49.75;;;;;1.72;81.94;101860.59;5057526;28;45596;-62
2022/01/16 04:51:38;;;;;;;;;72.75;50.00;;;;;1.72;81.69;101873.56;5057203;28;45551;-62
2022/01/16 04:54:04;;;;;;;;;68.75;50.50;;;;;1.64;82.16;101849.19;5059165;28;45357;-62
2022/01/16 04:56:29;;;;;;;;;65.00;49.25;;;;;1.71;82.90;101857.13;5060442;28;45261;-60
2022/01/16 04:58:55;;;;;;;;;61.25;47.50;;;;;1.77;82.15;101851.16;5059967;28;46434;-62
2022/01/16 05:01:20;;;;;;;;;69.50;49.00;;;;;1.79;81.79;101852.06;5059458;28;45453;-60
2022/01/16 05:03:46;;;;;;;;;65.00;48.25;;;;;1.81;81.80;101852.09;5057868;28;45435;-61
2022/01/16 05:06:11;;;;;;;;;71.00;49.75;;;;;1.58;81.90;101840.47;5059079;28;45294;-62
2022/01/16 05:08:37;;;;;;;;;69.50;49.75;;;;;1.75;82.35;101877.09;5056761;28;45447;-61
2022/01/16 05:11:04;;;;;;;;;56.75;41.00;;;;;1.73;81.99;101880.50;5057129;28;45323;-61
2022/01/16 05:18:43;;;;;;;;;65.75;49.50;;;;;1.67;82.22;101886.47;5057073;28;45344;-62
2022/01/16 05:21:09;;;;;;;;;66.25;49.25;;;;;1.57;83.30;101863.78;5056452;28;45447;-64
2022/01/16 05:23:35;;;;;;;;;64.75;47.50;;;;;1.74;82.83;101887.44;5056814;28;45332;-62
2022/01/16 05:26:01;;;;;;;;;70.75;51.00;;;;;1.72;83.23;101883.94;5057470;28;45284;-61
2022/01/16 05:28:28;;;;;;;;;71.50;51.75;;;;;1.66;83.24;101895.09;5056337;28;45552;-62
2022/01/16 05:30:54;;;;;;;;;70.50;51.75;;;;;1.50;83.46;101878.38;5056238;28;45497;-62
2022/01/16 05:33:19;;;;;;;;;65.75;50.75;;;;;1.58;83.40;101913.09;5058166;28;45783;-60
2022/01/16 05:35:44;;;;;;;;;70.50;50.75;;;;;1.58;84.03;101912.19;5058530;28;45321;-63
2022/01/16 05:38:10;;;;;;;;;73.00;53.00;;;;;1.55;83.91;101920.81;5056969;28;45442;-61
2022/01/16 05:40:36;;;;;;;;;66.25;49.00;;;;;1.54;83.67;101921.66;5056514;28;45491;-63
2022/01/16 05:43:02;;;;;;;;;72.50;48.75;;;;;1.51;84.22;101923.31;5039365;28;45354;-61
2022/01/16 05:45:28;;;;;;;;;64.25;48.50;;;;;1.44;84.51;101922.34;5058983;28;45591;-62
2022/01/16 05:47:53;;;;;;;;;65.25;48.25;;;;;1.32;84.83;101904.81;5060699;28;46315;-63
2022/01/16 05:50:19;;;;;;;;;64.50;47.50;;;;;1.36;85.29;101900.56;5059850;28;45339;-62
2022/01/16 05:52:45;;;;;;;;;70.50;48.25;;;;;1.33;84.98;101880.63;5041596;28;45351;-61
2022/01/16 05:55:11;;;;;;;;;63.75;48.00;;;;;1.44;85.87;101915.41;5058104;28;45475;-61
2022/01/16 05:57:36;;;;;;;;;62.50;44.25;;;;;1.45;85.16;101935.31;5037772;28;46078;-61
2022/01/16 06:00:05;;;;;;;;;64.50;48.25;;;;;1.43;85.41;101924.03;5056169;28;45404;-61
2022/01/16 06:02:31;;;;;;;;;59.75;43.25;;;;;1.44;85.62;101932.72;5038731;28;45280;-61
2022/01/16 06:04:56;;;;;;;;;64.50;47.00;;;;;1.43;85.54;101934.41;5056535;28;45259;-62
2022/01/16 06:07:21;;;;;;;;;63.50;46.75;;;;;1.42;85.36;101924.03;5055462;28;46153;-62
2022/01/16 06:09:47;;;;;;;;;59.00;41.50;;;;;1.47;85.76;101924.97;5056140;28;45438;-61
2022/01/16 06:12:12;;;;;;;;;59.75;45.25;;;;;1.51;86.03;101921.59;5056229;28;45377;-62
2022/01/16 06:14:38;;;;;;;;;60.00;45.50;;;;;1.54;85.98;101908.69;5057017;28;45592;-62
2022/01/16 06:17:04;;;;;;;;;58.50;39.50;;;;;1.58;86.20;101933.84;5056687;28;46210;-60
2022/01/16 06:19:29;;;;;;;;;56.00;43.75;;;;;1.60;85.52;101958.09;5056322;28;45402;-62
2022/01/16 06:21:55;;;;;;;;;57.75;42.75;;;;;1.55;86.15;101944.16;5055848;28;45462;-61
2022/01/16 06:24:21;;;;;;;;;56.00;43.75;;;;;1.59;85.83;101951.16;5057700;28;45400;-61
2022/01/16 06:26:49;;;;;;;;;58.75;43.75;;;;;1.49;85.46;101940.56;5056106;28;46128;-61
2022/01/16 06:29:15;;;;;;;;;61.00;40.25;;;;;1.55;85.94;101941.56;5056043;28;45273;-61
2022/01/16 06:31:41;;;;;;;;;57.00;43.25;;;;;1.58;85.99;101949.41;5056622;28;45268;-62
2022/01/16 06:34:06;;;;;;;;;23.75;12.25;;;;;1.56;86.14;101947.59;5057802;28;45631;-60
2022/01/16 06:36:33;;;;;;;;;53.25;39.75;;;;;1.61;85.99;101961.56;5056825;28;45966;-62
2022/01/16 06:39:00;;;;;;;;;51.25;38.50;;;;;1.55;86.22;101949.34;5057287;28;45392;-61
2022/01/16 06:41:25;;;;;;;;;49.00;35.75;;;;;1.54;85.74;101954.47;5060653;28;45415;-62
2022/01/16 06:43:51;;;;;;;;;46.00;35.25;;;;;1.50;85.63;101961.34;5059664;28;45577;-61
2022/01/16 06:46:16;;;;;;;;;43.00;36.75;;;;;1.49;86.23;101969.97;5040122;28;47526;-61
2022/01/16 06:48:42;;;;;;;;;50.50;37.00;;;;;1.46;86.56;101964.72;5057000;28;45498;-61
2022/01/16 06:51:07;;;;;;;;;57.75;39.00;;;;;1.52;86.16;101959.66;5057005;28;45439;-61
2022/01/16 06:53:34;;;;;;;;;58.00;41.50;;;;;1.56;86.70;101968.34;5057819;28;45359;-61
2022/01/16 06:55:59;;;;;;;;;54.25;39.00;;;;;1.59;86.66;101960.63;5056534;28;46227;-62
2022/01/16 06:58:25;;;;;;;;;58.25;39.25;;;;;1.65;86.20;101978.94;5056021;28;45249;-62
2022/01/16 07:00:51;;;;;;;;;53.50;38.00;;;;;1.65;86.00;101998.81;5057024;28;45341;-63
2022/01/16 07:03:16;;;;;;;;;48.75;38.00;;;;;1.62;85.99;101999.63;5038990;28;45499;-62
2022/01/16 07:05:43;;;;;;;;;52.25;36.25;;;;;1.63;86.08;101992.72;5056469;28;45228;-63
2022/01/16 07:08:09;;;;;;;;;52.00;36.50;;;;;1.69;86.48;102003.22;5056090;28;45337;-60
2022/01/16 07:10:34;;;;;;;;;36.75;28.25;;;;;1.69;85.87;102004.09;5055567;28;45896;-61
2022/01/16 07:12:59;;;;;;;;;50.00;33.25;;;;;1.65;86.04;102015.25;5056241;28;45510;-62
2022/01/16 07:15:25;;;;;;;;;40.25;31.75;;;;;1.65;85.85;102012.66;5055602;28;46272;-61
2022/01/16 07:17:51;;;;;;;;;41.00;32.00;;;;;1.66;86.24;102008.34;5055756;28;45353;-62
2022/01/16 07:20:16;;;;;;;;;37.50;29.25;;;;;1.69;86.50;102014.47;5056624;28;45427;-62
2022/01/16 07:22:43;;;;;;;;;39.75;31.00;;;;;1.70;86.73;102007.56;5058043;28;45520;-60
2022/01/16 07:25:10;;;;;;;;;44.00;31.00;;;;;1.68;86.19;102001.47;5057640;28;46603;-61
2022/01/16 07:27:36;;;;;;;;;44.00;33.75;;;;;1.67;87.13;102003.19;5058930;28;45325;-61
2022/01/16 07:30:01;;;;;;;;;37.00;29.75;;;;;1.68;87.01;102006.66;5059606;28;45431;-61
2022/01/16 07:32:27;;;;;;;;;50.75;33.50;;;;;1.77;86.46;101996.44;5057378;28;45293;-62
2022/01/16 07:34:52;;;;;;;;;51.00;34.75;;;;;1.75;86.53;102011.09;5055833;28;46468;-61
2022/01/16 07:37:17;;;;;;;;;29.00;27.50;;;;;1.80;86.08;102027.63;5056464;28;45216;-61
2022/01/16 07:39:44;;;;;;;;;44.75;31.25;;;;;1.85;86.16;102031.19;5059155;28;45368;-61
2022/01/16 07:42:09;;;;;;;;;40.25;35.25;;;;;1.89;86.60;102042.53;5059061;28;45434;-61
2022/01/16 07:44:34;;;;;;;;;48.50;35.75;;;;;1.93;86.28;102033.06;5058882;28;45453;-62
2022/01/16 07:47:00;;;;;;;;;55.25;40.00;;;;;1.95;86.44;102029.66;5058845;28;45319;-61
2022/01/16 07:49:25;;;;;;;;;42.50;32.25;;;;;1.97;86.35;102029.69;5061051;28;45381;-61
2022/01/16 07:51:50;;;;;;;;;36.75;30.25;;;;;2.05;86.69;102033.28;5058130;28;45730;-62
2022/01/16 07:54:16;;;;;;;;;45.50;33.00;;;;;2.09;86.05;102032.50;5057879;28;46038;-62
2022/01/16 07:56:41;;;;;;;;;38.00;32.00;;;;;2.17;86.55;102035.25;5040544;28;45434;-61
2022/01/16 07:59:06;;;;;;;;;41.00;27.50;;;;;2.21;86.28;102024.06;5059054;28;45322;-60
2022/01/16 08:01:32;;;;;;;;;42.25;30.50;;;;;2.21;86.25;102005.91;5059075;28;45707;-61
2022/01/16 08:03:57;;;;;;;;;32.25;24.50;;;;;2.25;86.43;102006.84;5058709;28;45503;-62
2022/01/16 08:06:22;;;;;;;;;49.75;32.75;;;;;2.20;86.27;101985.97;5059538;28;45474;-61
2022/01/16 08:08:48;;;;;;;;;44.50;29.50;;;;;2.32;86.36;102013.88;5063757;28;45388;-61
2022/01/16 08:11:13;;;;;;;;;50.25;34.00;;;;;2.37;85.67;102014.84;5057996;28;45578;-62
2022/01/16 08:13:39;;;;;;;;;42.75;34.00;;;;;2.45;86.25;102017.53;5058103;28;46123;-60
2022/01/16 08:16:08;;;;;;;;;40.50;32.75;;;;;2.51;85.55;102020.25;5057492;28;45300;-62
2022/01/16 08:18:33;;;;;;;;;40.00;32.50;;;;;2.55;85.70;102027.25;5039956;28;45240;-62
2022/01/16 08:21:00;;;;;;;;;50.25;31.25;;;;;2.55;84.79;102029.84;5058043;28;45532;-62
2022/01/16 08:23:26;;;;;;;;;41.00;32.75;;;;;2.54;85.92;102043.69;5059476;28;46199;-63
2022/01/16 08:25:52;;;;;;;;;38.75;31.00;;;;;2.60;85.67;102037.72;5040481;28;45436;-62
2022/01/16 08:28:18;;;;;;;;;49.25;32.25;;;;;2.67;85.78;102031.78;5057872;28;45327;-65
2022/01/16 08:30:43;;;;;;;;;41.00;32.75;;;;;2.72;85.33;102026.66;5058497;28;45263;-61
2022/01/16 08:33:09;;;;;;;;;35.25;32.75;;;;;2.74;84.82;102032.75;5057851;28;47644;-62
2022/01/16 08:35:34;;;;;;;;;36.00;23.25;;;;;2.77;85.64;102025.00;5057729;28;45368;-62
2022/01/16 08:38:00;;;;;;;;;48.25;33.00;;;;;2.81;84.69;102025.91;5057436;28;45902;-61
2022/01/16 08:40:25;;;;;;;;;41.25;35.00;;;;;2.80;85.20;102025.06;5058866;28;45427;-61
2022/01/16 08:42:51;;;;;;;;;45.00;34.25;;;;;2.72;84.51;102024.91;5057674;28;45522;-61
2022/01/16 08:45:16;;;;;;;;;40.25;34.00;;;;;2.76;85.76;102018.06;5057407;28;45439;-61
2022/01/16 08:47:42;;;;;;;;;38.00;31.00;;;;;2.89;84.76;102039.91;5058160;28;45249;-62
2022/01/16 08:50:09;;;;;;;;;44.75;31.75;;;;;2.93;85.99;102031.28;5058235;28;45270;-60
2022/01/16 08:52:35;;;;;;;;;27.50;24.25;;;;;2.95;85.26;102020.94;5058971;28;46278;-62
2022/01/16 08:55:01;;;;;;;;;41.75;32.75;;;;;2.99;85.02;102040.94;5060075;28;45314;-62
2022/01/16 08:57:27;;;;;;;;;46.25;33.25;;;;;3.01;85.34;102045.28;5058210;28;45337;-62
2022/01/16 08:59:52;;;;;;;;;49.25;37.50;;;;;3.00;85.32;102040.06;5058425;28;45326;-61
2022/01/16 09:02:18;;;;;;;;;37.25;33.25;;;;;3.07;85.21;102053.16;5057638;28;46037;-63
2022/01/16 09:04:43;;;;;;;;;36.75;34.00;;;;;3.11;84.40;102050.63;5058100;28;45494;-62
2022/01/16 09:07:09;;;;;;;;;39.25;33.25;;;;;3.13;84.78;102054.09;5061576;28;45324;-62
2022/01/16 09:09:34;;;;;;;;;44.50;34.50;;;;;3.23;84.63;102066.41;5062490;28;45508;-61
2022/01/16 09:12:00;;;;;;;;;47.50;35.25;;;;;3.29;85.07;102073.41;5057839;28;45263;-61
2022/01/16 09:14:25;;;;;;;;;46.50;32.50;;;;;3.35;85.08;102070.91;5057008;28;45499;-61
2022/01/16 09:16:51;;;;;;;;;45.00;36.00;;;;;3.40;83.94;102068.38;5057082;28;45460;-62
2022/01/16 09:19:16;;;;;;;;;48.75;37.00;;;;;3.46;84.04;102073.66;5057573;28;45385;-62
2022/01/16 09:21:42;;;;;;;;;44.50;31.75;;;;;3.52;83.84;102073.75;5061860;28;46519;-62
2022/01/16 09:24:07;;;;;;;;;43.00;34.00;;;;;3.58;83.78;102073.81;5057317;28;45258;-61
2022/01/16 09:26:32;;;;;;;;;38.75;34.00;;;;;3.63;84.00;102066.06;5062393;28;45395;-62
2022/01/16 09:28:58;;;;;;;;;46.75;35.50;;;;;3.63;83.34;102077.34;5061444;28;45418;-60
2022/01/16 09:31:26;;;;;;;;;48.75;34.00;;;;;3.62;82.95;102075.63;5059428;28;45882;-61
2022/01/16 09:33:54;;;;;;;;;51.50;34.75;;;;;3.55;83.46;102078.09;5058767;28;45269;-61
2022/01/16 09:36:19;;;;;;;;;44.50;34.00;;;;;3.56;83.47;102087.66;5057798;28;45305;-62
2022/01/16 09:38:45;;;;;;;;;44.25;34.75;;;;;3.53;83.37;102088.50;5058667;28;45522;-61
2022/01/16 09:41:11;;;;;;;;;45.75;36.25;;;;;3.55;83.19;102081.59;5057423;28;46165;-62
2022/01/16 09:43:38;;;;;;;;;47.75;37.25;;;;;3.66;83.48;102086.91;5058407;28;44844;-61
2022/01/16 09:46:04;;;;;;;;;45.25;36.25;;;;;3.78;84.03;102092.31;5035498;28;45235;-61
2022/01/16 09:48:30;;;;;;;;;47.50;35.50;;;;;3.93;83.37;102095.94;5036811;28;45361;-62
2022/01/16 09:50:55;;;;;;;;;42.00;34.00;;;;;4.03;82.94;102102.13;5037224;28;47009;-61
2022/01/16 09:53:22;;;;;;;;;46.50;35.00;;;;;3.98;82.14;102077.75;5046625;28;45383;-61
2022/01/16 09:55:48;;;;;;;;;51.00;36.00;;;;;4.00;82.00;102084.75;5057686;28;45510;-63
2022/01/16 09:58:13;;;;;;;;;40.50;31.75;;;;;3.99;81.83;102097.72;5058581;28;45280;-60
2022/01/16 10:00:39;;;;;;;;;21.75;18.75;;;;;4.00;82.15;102100.38;5038362;28;47159;-61
2022/01/16 10:03:05;;;;;;;;;47.50;33.50;;;;;3.99;81.74;102089.91;5056183;28;45237;-62
2022/01/16 10:05:36;;;;;;;;;47.25;33.75;;;;;3.97;81.77;102096.84;5056702;28;45269;-61
2022/01/16 10:08:11;;;;;;;;;42.00;35.25;;;;;4.02;82.38;102089.97;5054708;28;45371;-61
2022/01/16 10:10:42;;;;;;;;;43.25;34.00;;;;;4.13;81.52;102090.94;5055579;28;46079;-62
2022/01/16 10:13:41;;;;;;;;;36.00;29.50;;;;;4.31;81.58;102087.66;5037421;28;45403;-61
2022/01/16 10:16:06;;;;;;;;;27.25;27.00;;;;;4.52;80.92;102091.34;5052837;28;45272;-62
2022/01/16 10:18:38;;;;;;;;;32.00;24.50;;;;;4.66;80.04;102096.69;5057405;28;45621;-61
2022/01/16 10:21:04;;;;;;;;;43.50;33.50;;;;;4.69;79.22;102099.31;5055744;28;46082;-61
2022/01/16 10:23:39;;;;;;;;;37.25;29.50;;;;;4.67;79.60;102095.84;5058014;28;45329;-62
2022/01/16 10:26:04;;;;;;;;;33.50;28.50;;;;;4.50;78.64;102083.53;5057921;28;45398;-60
2022/01/16 10:28:29;;;;;;;;;33.50;24.00;;;;;4.36;78.82;102101.63;5059725;28;45429;-62
2022/01/16 10:30:57;;;;;;;;;28.75;22.00;;;;;4.23;78.95;102102.34;5040668;28;47371;-62
2022/01/16 10:33:27;;;;;;;;;35.00;28.75;;;;;4.14;79.44;102110.91;5057725;28;45377;-63
2022/01/16 10:35:55;;;;;;;;;38.75;32.50;;;;;4.09;79.70;102102.19;5056216;28;45293;-62
2022/01/16 10:38:24;;;;;;;;;34.25;27.50;;;;;4.05;79.82;102097.81;5056601;28;45374;-63
2022/01/16 10:40:50;;;;;;;;;30.25;27.75;;;;;4.00;80.05;102094.28;5056228;28;46245;-61
2022/01/16 10:43:40;;;;;;;;;32.00;31.50;;;;;3.99;80.37;102097.72;5056675;28;45345;-61
2022/01/16 10:46:06;;;;;;;;;40.75;29.50;;;;;3.97;80.32;102096.84;5035160;28;45529;-63
2022/01/16 10:48:32;;;;;;;;;32.00;25.75;;;;;4.01;79.98;102103.84;5020460;28;45547;-62
2022/01/16 10:50:59;;;;;;;;;36.50;33.75;;;;;4.00;80.39;102089.97;5035949;28;45489;-61
2022/01/16 10:53:40;;;;;;;;;27.50;24.75;;;;;3.91;80.29;102085.50;5046580;28;45329;-62
2022/01/16 10:56:05;;;;;;;;;33.75;26.25;;;;;3.98;80.72;102090.78;5035271;28;45541;-61
2022/01/16 10:58:40;;;;;;;;;34.25;30.00;;;;;4.00;80.06;102089.06;5056422;28;45515;-65
2022/01/16 11:01:13;;;;;;;;;44.00;36.25;;;;;4.01;81.06;102093.41;5037818;28;46804;-61
2022/01/16 11:03:41;;;;;;;;;43.50;36.50;;;;;4.06;80.75;102090.03;5055089;28;45474;-64
2022/01/16 11:06:06;;;;;;;;;29.75;27.00;;;;;4.09;80.79;102078.75;5055702;28;45387;-63
2022/01/16 11:08:33;;;;;;;;;33.25;29.50;;;;;4.22;80.55;102093.66;5056276;28;45801;-62
2022/01/16 11:11:00;;;;;;;;;34.00;30.00;;;;;4.38;80.51;102088.63;5054743;28;45508;-62
2022/01/16 11:13:30;;;;;;;;;32.75;27.50;;;;;4.48;80.37;102095.66;5054106;28;45361;-63
2022/01/16 11:16:03;;;;;;;;;43.25;34.25;;;;;4.52;79.78;102100.06;5060669;28;45298;-62
2022/01/16 11:18:29;;;;;;;;;31.00;26.75;;;;;4.24;79.31;102057.22;5057709;28;45215;-62
2022/01/16 11:21:26;;;;;;;;;32.50;25.25;;;;;4.38;79.16;102086.03;5056003;28;46191;-65
2022/01/16 11:26:18;;;;;;;;;32.50;27.25;;;;;4.28;80.39;102098.06;5059683;28;45456;-64
2022/01/16 11:28:43;;;;;;;;;36.00;30.25;;;;;4.31;80.20;102092.03;5057979;28;45458;-65
2022/01/16 11:31:12;;;;;;;;;35.75;31.25;;;;;4.29;79.98;102073.75;5058461;28;46508;-63
2022/01/16 11:33:40;;;;;;;;;34.00;28.25;;;;;4.36;80.04;102086.00;5058202;28;45287;-64
2022/01/16 11:36:13;;;;;;;;;25.25;24.25;;;;;4.21;79.86;102054.56;5059576;28;45479;-63
2022/01/16 11:38:45;;;;;;;;;28.25;23.50;;;;;4.46;79.96;102092.19;5059823;28;45548;-63
2022/01/16 11:41:23;;;;;;;;;40.00;30.00;;;;;4.35;79.88;102070.34;5059196;28;45358;-63
2022/01/16 11:43:50;;;;;;;;;35.00;29.00;;;;;4.57;79.79;102091.41;5058955;28;45331;-65
2022/01/16 11:46:27;;;;;;;;;39.75;32.00;;;;;4.65;79.63;102094.94;5057183;28;45451;-61
2022/01/16 11:48:58;;;;;;;;;37.25;32.75;;;;;4.71;79.48;102099.31;5058693;28;45436;-65
2022/01/16 11:51:33;;;;;;;;;32.50;28.50;;;;;4.73;79.44;102097.59;5058193;28;45443;-61
2022/01/16 11:53:58;;;;;;;;;34.00;32.75;;;;;4.76;79.93;102095.03;5058207;28;45471;-63
2022/01/16 11:56:39;;;;;;;;;35.50;30.50;;;;;4.82;79.38;102097.72;5058875;28;45326;-61
2022/01/16 11:59:32;;;;;;;;;32.50;28.00;;;;;4.93;79.59;102098.66;5040302;28;45358;-63
2022/01/16 12:01:57;;;;;;;;;29.00;23.25;;;;;5.13;79.70;102084.91;5059077;28;45467;-67
2022/01/16 12:04:29;;;;;;;;;34.50;33.00;;;;;5.27;78.70;102084.97;5059177;28;45456;-65